Impacts METAR Board INFO
IDs:

KDCA - Washington/National, VA, US

Updated at: 0428 UTC 15 Dec 2017
Potential Impact None Slight Moderate High
Time14/16Z 14/17Z 14/18Z 14/19Z 14/20Z 14/21Z 14/22Z 14/23Z 15/00Z 15/01Z 15/02Z 15/03Z 15/04Z
VIS10 10 10 10 10 10 10 10 10 10 10 10 10
CIG55 60 250 250 250 250 220 220 190 180 200 200 210
CoverBKNBKNBKNBKNBKNBKNBKNBKNOVCBKNOVCOVCBKN
FltCatVFRVFRVFRVFRVFRVFRVFRVFRVFRVFRVFRVFRVFR
WX--------------------------
WDir3303203303503403403503403603403601030
WSpd21 15 18 15 11 12 11 12 9 11 12 10 9
WGst28 26 27 -- -- -- -- -- -- -- -- -- --
Raw hourly METARs
KDCA 141552Z 33021G28KT 10SM BKN055 06/M06 A2984 RMK AO2 PK WND 34028/1552 SLP102 T00561056
KDCA 141652Z 32015G26KT 10SM SCT047 BKN060 05/M07 A2988 RMK AO2 PK WND 34029/1553 SLP119 T00501067
KDCA 141752Z 33018G27KT 10SM FEW045 SCT060 BKN250 05/M09 A2988 RMK AO2 PK WND 34027/1751 SLP118 T00501089 10067 20022 50037
KDCA 141852Z 35015KT 10SM SCT060 BKN250 05/M09 A2991 RMK AO2 SLP129 T00501089
KDCA 141952Z 34011KT 10SM FEW060 BKN250 04/M09 A2993 RMK AO2 SLP135 T00441089
KDCA 142052Z 34012KT 10SM FEW060 BKN250 04/M09 A2996 RMK AO2 SLP145 T00391089 51027
KDCA 142152Z 35011KT 10SM FEW055 BKN220 03/M08 A2999 RMK AO2 SLP155 T00281083
KDCA 142252Z 34012KT 10SM BKN220 02/M09 A3003 RMK AO2 SLP166 T00221089
KDCA 142352Z 36009KT 10SM OVC190 02/M09 A3006 RMK AO2 SLP178 T00171089 10050 20017 53032
KDCA 150052Z 34011KT 10SM BKN180 02/M09 A3008 RMK AO2 SLP186 T00171089
KDCA 150152Z 36012KT 10SM SCT160 OVC200 01/M09 A3010 RMK AO2 SLP192 T00111094
KDCA 150252Z 01010KT 10SM OVC200 01/M10 A3011 RMK AO2 SLP194 T00061100 51016
KDCA 150352Z 03009KT 10SM BKN210 00/M09 A3012 RMK AO2 SLP198 T00001094